Time;durP1;ratioP1;P1;durP2;ratioP2;P2;SDS_P1;SDS_P2;PMS_P1;PMS_P2;Temp;Humidity;BMP_temperature;BMP_pressure;BME280_temperature;BME280_humidity;BME280_pressure;Samples;Min_cycle;Max_cycle;Signal;HPM_P1;HPM_P2
2023/03/18 00:00:48;;;;;;;3.15;1.00;;;15.90;63.00;;;;;;2520058;54;21033;-68
2023/03/18 00:03:16;;;;;;;2.25;0.70;;;15.90;62.90;;;;;;2288138;55;20962;-66
2023/03/18 00:05:42;;;;;;;2.58;0.90;;;15.90;62.80;;;;;;2288521;55;21876;-67
2023/03/18 00:08:09;;;;;;;2.58;0.80;;;15.90;62.90;;;;;;2523547;54;21538;-69
2023/03/18 00:10:35;;;;;;;2.67;0.80;;;15.90;63.00;;;;;;2288804;55;21061;-67
2023/03/18 00:13:03;;;;;;;2.05;0.80;;;15.90;63.00;;;;;;2288207;55;21839;-66
2023/03/18 00:15:29;;;;;;;2.10;0.80;;;16.00;63.00;;;;;;2521054;54;21917;-66
2023/03/18 00:17:58;;;;;;;2.50;0.85;;;16.00;63.10;;;;;;2516982;54;20994;-66
2023/03/18 00:20:27;;;;;;;2.55;0.82;;;16.00;63.00;;;;;;2288363;55;21009;-66
2023/03/18 00:22:54;;;;;;;1.60;0.60;;;16.00;63.00;;;;;;2516298;54;21004;-68
2023/03/18 00:25:20;;;;;;;1.98;0.70;;;16.00;63.00;;;;;;2516122;55;21010;-66
2023/03/18 00:27:47;;;;;;;2.53;0.70;;;16.00;63.00;;;;;;2285754;55;21010;-66
2023/03/18 00:30:13;;;;;;;1.42;0.50;;;16.00;62.90;;;;;;2522505;54;20962;-66
2023/03/18 00:32:40;;;;;;;2.37;0.85;;;16.00;62.90;;;;;;2288457;55;20918;-70
2023/03/18 00:35:06;;;;;;;2.17;0.70;;;16.00;62.90;;;;;;2521142;54;21063;-66
2023/03/18 00:37:35;;;;;;;1.87;0.68;;;16.00;62.70;;;;;;2517322;54;20961;-66
2023/03/18 00:40:07;;;;;;;2.22;0.70;;;16.00;62.60;;;;;;2288036;55;21065;-67
2023/03/18 00:42:38;;;;;;;2.50;0.75;;;16.00;62.00;;;;;;2522325;54;21081;-66
2023/03/18 00:45:06;;;;;;;3.05;1.05;;;16.00;62.50;;;;;;2522845;54;20938;-66
2023/03/18 00:47:32;;;;;;;3.35;0.70;;;16.00;62.40;;;;;;2522710;54;21041;-68
2023/03/18 00:49:58;;;;;;;1.30;0.60;;;16.00;62.50;;;;;;2288312;55;21021;-68
2023/03/18 00:52:25;;;;;;;2.53;0.60;;;16.00;62.60;;;;;;2288264;55;21376;-67
2023/03/18 00:54:51;;;;;;;1.87;0.70;;;16.00;62.50;;;;;;2287982;55;20946;-66
2023/03/18 00:57:18;;;;;;;1.70;0.60;;;16.00;62.40;;;;;;2522945;54;20993;-66
2023/03/18 00:59:44;;;;;;;1.70;0.65;;;16.00;62.50;;;;;;2288016;55;21013;-66
2023/03/18 01:02:10;;;;;;;3.28;0.88;;;15.90;62.30;;;;;;2287814;55;21002;-70
2023/03/18 01:04:37;;;;;;;1.52;0.60;;;15.90;62.30;;;;;;2285672;55;20989;-66
2023/03/18 01:07:04;;;;;;;2.62;0.80;;;15.90;62.40;;;;;;2287370;55;20954;-65
2023/03/18 01:09:30;;;;;;;2.03;0.73;;;15.90;62.40;;;;;;2288026;55;21941;-66
2023/03/18 01:11:57;;;;;;;2.00;0.77;;;15.90;62.40;;;;;;2287856;55;21757;-68
2023/03/18 01:14:24;;;;;;;2.22;0.98;;;15.90;62.40;;;;;;2288094;55;21038;-70
2023/03/18 01:16:52;;;;;;;2.42;0.90;;;15.90;62.40;;;;;;2287677;55;21084;-66
2023/03/18 01:19:18;;;;;;;2.22;0.65;;;15.80;62.30;;;;;;2287793;55;21046;-69
2023/03/18 01:21:45;;;;;;;1.95;0.75;;;15.90;62.40;;;;;;2288101;55;21492;-69
2023/03/18 01:24:12;;;;;;;1.37;0.68;;;15.80;62.40;;;;;;2290748;55;21035;-66
2023/03/18 01:26:38;;;;;;;2.30;0.80;;;15.80;62.50;;;;;;2284619;55;21842;-69
2023/03/18 01:29:04;;;;;;;1.52;0.60;;;15.80;62.40;;;;;;2287296;55;20958;-66
2023/03/18 01:31:30;;;;;;;2.35;0.93;;;15.80;62.40;;;;;;2288683;55;20954;-65
2023/03/18 01:33:57;;;;;;;2.40;1.00;;;15.80;62.40;;;;;;2288113;55;20970;-67
2023/03/18 01:36:24;;;;;;;2.65;0.82;;;15.80;62.30;;;;;;2522556;54;20960;-66
2023/03/18 01:38:51;;;;;;;2.97;0.90;;;15.80;62.40;;;;;;2288308;55;20938;-68
2023/03/18 01:41:17;;;;;;;2.30;0.80;;;15.80;62.20;;;;;;2522760;54;21000;-68
2023/03/18 01:43:43;;;;;;;2.05;0.73;;;15.80;62.40;;;;;;2522556;54;20966;-69
2023/03/18 01:48:01;;;;;;;2.85;0.90;;;15.70;62.20;;;;;;2288365;55;21584;-67
2023/03/18 01:50:30;;;;;;;2.12;0.70;;;15.70;60.10;;;;;;2287856;55;21447;-68
2023/03/18 01:53:00;;;;;;;5.32;0.73;;;15.70;62.50;;;;;;2288041;55;21010;-66
2023/03/18 01:55:31;;;;;;;4.20;0.80;;;15.70;62.40;;;;;;2288061;55;21494;-69
2023/03/18 01:58:03;;;;;;;2.05;0.88;;;15.70;62.30;;;;;;2288204;55;21049;-66
2023/03/18 02:00:29;;;;;;;2.58;0.90;;;15.60;62.10;;;;;;2518512;54;21015;-68
2023/03/18 02:02:57;;;;;;;3.08;0.82;;;15.60;62.20;;;;;;2285656;55;21010;-69
2023/03/18 02:05:24;;;;;;;1.98;0.70;;;15.60;62.20;;;;;;2286290;55;21418;-67
2023/03/18 02:07:53;;;;;;;2.55;0.70;;;15.60;62.20;;;;;;2286826;55;20966;-66
2023/03/18 02:10:24;;;;;;;1.98;0.70;;;15.60;62.30;;;;;;2521807;54;21443;-69
2023/03/18 02:12:59;;;;;;;1.73;0.70;;;15.60;62.30;;;;;;2521818;54;21025;-65
2023/03/18 02:15:26;;;;;;;1.65;0.70;;;15.60;62.40;;;;;;2521531;54;20966;-66
2023/03/18 02:18:20;;;;;;;2.25;0.60;;;15.60;62.60;;;;;;2286748;55;21449;-66
2023/03/18 02:21:09;;;;;;;3.87;0.80;;;15.60;61.00;;;;;;2521050;54;20957;-65
2023/03/18 02:25:12;;;;;;;3.03;0.80;;;15.60;60.90;;;;;;2521412;54;21049;-69
2023/03/18 02:27:44;;;;;;;2.05;0.60;;;15.50;60.20;;;;;;2287449;55;20978;-66
2023/03/18 02:30:26;;;;;;;1.98;0.80;;;15.60;62.10;;;;;;2521833;54;21348;-65
2023/03/18 02:32:52;;;;;;;5.32;1.00;;;15.50;62.20;;;;;;2521725;54;20954;-64
2023/03/18 02:35:19;;;;;;;2.08;0.80;;;15.50;62.40;;;;;;2521653;54;21021;-68
2023/03/18 02:37:45;;;;;;;1.75;0.80;;;15.50;62.40;;;;;;2521110;54;21010;-65
2023/03/18 02:40:27;;;;;;;2.58;0.85;;;15.50;62.40;;;;;;2287252;55;21918;-65
2023/03/18 02:42:53;;;;;;;1.57;0.60;;;15.50;61.50;;;;;;2521683;54;21070;-64
2023/03/18 02:45:47;;;;;;;2.55;0.90;;;15.50;62.40;;;;;;2287102;55;21006;-67
2023/03/18 02:48:16;;;;;;;3.05;0.80;;;15.50;61.60;;;;;;2287944;55;21019;-69
2023/03/18 02:50:42;;;;;;;2.25;0.93;;;15.40;62.20;;;;;;2283977;55;20985;-65
2023/03/18 02:53:11;;;;;;;1.83;0.68;;;15.50;62.40;;;;;;2521687;54;20926;-65
2023/03/18 02:55:37;;;;;;;2.62;0.85;;;15.40;62.20;;;;;;2521568;54;20938;-65
2023/03/18 02:58:04;;;;;;;2.37;0.80;;;15.40;62.50;;;;;;2286806;55;21559;-65
2023/03/18 03:00:30;;;;;;;2.97;0.88;;;15.40;62.50;;;;;;2286915;55;21045;-66
2023/03/18 03:02:57;;;;;;;2.22;0.80;;;15.50;62.50;;;;;;2520969;54;21041;-66
2023/03/18 03:05:23;;;;;;;1.35;0.60;;;15.50;62.50;;;;;;2288369;55;21739;-67
2023/03/18 03:07:51;;;;;;;2.03;0.73;;;15.40;62.40;;;;;;2288466;55;21159;-67
2023/03/18 03:10:18;;;;;;;2.92;0.68;;;15.40;62.50;;;;;;2288283;55;20958;-65
2023/03/18 03:12:44;;;;;;;2.45;0.70;;;15.40;62.60;;;;;;2287736;55;21053;-66
2023/03/18 03:15:10;;;;;;;1.87;0.77;;;15.40;62.50;;;;;;2522982;54;21001;-65
2023/03/18 03:17:38;;;;;;;3.05;0.65;;;15.40;62.50;;;;;;2290368;55;21057;-66
2023/03/18 03:20:05;;;;;;;3.47;0.85;;;15.40;62.60;;;;;;2283374;55;20958;-65
2023/03/18 03:22:33;;;;;;;1.73;0.52;;;15.40;62.60;;;;;;2288269;55;21001;-65
2023/03/18 03:25:00;;;;;;;2.85;0.95;;;15.50;62.80;;;;;;2288307;55;21403;-66
2023/03/18 03:27:27;;;;;;;2.58;0.68;;;15.40;62.70;;;;;;2289134;55;21123;-65
2023/03/18 03:29:54;;;;;;;1.50;0.57;;;15.50;62.80;;;;;;2288835;55;21429;-66
2023/03/18 03:32:21;;;;;;;1.52;0.55;;;15.40;62.70;;;;;;2523592;54;21226;-65
2023/03/18 03:34:48;;;;;;;2.28;0.70;;;15.40;62.60;;;;;;2287863;55;21431;-66
2023/03/18 03:37:14;;;;;;;2.37;0.73;;;15.40;62.50;;;;;;2288684;55;21969;-68
2023/03/18 03:39:40;;;;;;;1.52;0.75;;;15.50;62.60;;;;;;2516221;54;20960;-68
2023/03/18 03:42:07;;;;;;;2.97;0.85;;;15.40;62.50;;;;;;2287757;55;20977;-65
2023/03/18 03:44:33;;;;;;;2.83;0.90;;;15.40;62.50;;;;;;2289180;55;20973;-67
2023/03/18 03:47:00;;;;;;;3.03;1.02;;;15.40;62.60;;;;;;2522641;54;20938;-65
2023/03/18 03:49:27;;;;;;;1.92;0.70;;;15.40;62.50;;;;;;2286982;55;21014;-66
2023/03/18 03:51:53;;;;;;;2.60;0.85;;;15.40;62.20;;;;;;2287399;55;20953;-65
2023/03/18 03:54:20;;;;;;;2.50;0.90;;;15.40;62.10;;;;;;2516084;54;20992;-66
2023/03/18 03:56:46;;;;;;;3.17;0.88;;;15.40;62.20;;;;;;2522867;54;20978;-66
2023/03/18 03:59:13;;;;;;;1.35;0.50;;;15.40;62.20;;;;;;2491956;54;22016;-68
2023/03/18 04:01:39;;;;;;;1.62;0.60;;;15.40;62.20;;;;;;2288652;55;20905;-66
2023/03/18 04:04:05;;;;;;;2.03;0.70;;;15.40;62.20;;;;;;2287618;55;20978;-65
2023/03/18 04:06:31;;;;;;;1.92;0.65;;;15.40;63.00;;;;;;2287795;55;21028;-65
2023/03/18 04:08:59;;;;;;;3.40;0.88;;;15.40;62.20;;;;;;2288129;55;20986;-67
2023/03/18 04:11:25;;;;;;;1.45;0.70;;;15.40;62.20;;;;;;2523124;54;20953;-66
2023/03/18 04:13:52;;;;;;;2.60;0.90;;;15.40;62.10;;;;;;2521778;54;21637;-67
2023/03/18 04:16:18;;;;;;;4.03;1.00;;;15.30;61.80;;;;;;2288594;56;20962;-67
2023/03/18 04:18:45;;;;;;;2.80;0.82;;;15.30;61.70;;;;;;2287966;55;20966;-67
2023/03/18 04:21:11;;;;;;;2.47;1.00;;;15.20;61.50;;;;;;2288015;55;21500;-66
2023/03/18 04:23:38;;;;;;;2.33;0.88;;;15.20;61.40;;;;;;2287934;55;21037;-66
2023/03/18 04:26:04;;;;;;;2.65;0.77;;;15.20;61.40;;;;;;2287898;55;20958;-66
2023/03/18 04:28:30;;;;;;;2.28;0.70;;;15.10;61.40;;;;;;2288313;55;21438;-67
2023/03/18 04:30:57;;;;;;;2.00;0.60;;;15.10;61.30;;;;;;2288286;55;21017;-68
2023/03/18 04:33:23;;;;;;;1.02;0.50;;;15.00;61.40;;;;;;2288262;55;21265;-68
2023/03/18 04:35:49;;;;;;;1.75;0.65;;;15.00;61.40;;;;;;2522450;54;20950;-67
2023/03/18 04:38:16;;;;;;;1.60;0.70;;;15.00;61.40;;;;;;2290432;55;21032;-67
2023/03/18 04:40:44;;;;;;;2.55;0.88;;;14.90;61.20;;;;;;2283572;55;20941;-68
2023/03/18 04:43:10;;;;;;;1.73;0.60;;;14.90;61.30;;;;;;2288250;55;21678;-69
2023/03/18 04:45:38;;;;;;;1.70;0.73;;;14.90;61.20;;;;;;2522846;54;20976;-66
2023/03/18 04:48:05;;;;;;;3.12;0.80;;;14.90;61.20;;;;;;2522257;54;21482;-66
2023/03/18 04:50:31;;;;;;;1.85;0.60;;;14.80;61.10;;;;;;2516676;54;21026;-66
2023/03/18 04:52:59;;;;;;;2.22;0.70;;;14.80;61.30;;;;;;2522733;54;21475;-69
2023/03/18 04:55:25;;;;;;;2.65;0.70;;;14.80;61.30;;;;;;2292320;55;21047;-67
2023/03/18 04:57:52;;;;;;;2.67;0.80;;;14.80;61.30;;;;;;2515994;54;20981;-67
2023/03/18 05:00:23;;;;;;;2.25;0.70;;;14.80;61.30;;;;;;2523291;54;20971;-67
2023/03/18 05:02:50;;;;;;;1.87;0.67;;;14.70;61.10;;;;;;2523001;54;20989;-65
2023/03/18 05:05:17;;;;;;;1.35;0.50;;;14.70;61.20;;;;;;2287907;55;21014;-68
2023/03/18 05:07:44;;;;;;;1.33;0.55;;;14.70;61.20;;;;;;2288338;55;20949;-65
2023/03/18 05:10:10;;;;;;;1.50;0.60;;;14.70;61.00;;;;;;2288377;55;20922;-66
2023/03/18 05:12:37;;;;;;;2.05;0.70;;;14.70;61.30;;;;;;2288056;55;21573;-69
2023/03/18 05:15:04;;;;;;;1.65;0.60;;;14.70;61.30;;;;;;2287956;55;20942;-66
2023/03/18 05:17:32;;;;;;;2.20;0.73;;;14.60;61.10;;;;;;2516334;54;20960;-65
2023/03/18 05:19:59;;;;;;;1.37;0.60;;;14.60;61.20;;;;;;2286862;55;21031;-65
2023/03/18 05:22:26;;;;;;;2.92;0.70;;;14.60;61.20;;;;;;2287599;55;20942;-65
2023/03/18 05:24:52;;;;;;;2.05;0.65;;;14.60;61.20;;;;;;2288367;56;21451;-65
2023/03/18 05:27:18;;;;;;;1.75;0.60;;;14.60;61.20;;;;;;2287538;55;21007;-65
2023/03/18 05:29:45;;;;;;;1.45;0.50;;;14.60;61.40;;;;;;2521122;54;21018;-66
2023/03/18 05:32:13;;;;;;;1.05;0.50;;;14.60;61.30;;;;;;2289083;55;21032;-66
2023/03/18 05:34:41;;;;;;;2.00;0.60;;;14.60;61.30;;;;;;2288964;55;21030;-66
2023/03/18 05:37:08;;;;;;;1.92;0.60;;;14.60;61.20;;;;;;2523310;54;21021;-70
2023/03/18 05:39:35;;;;;;;2.05;0.65;;;14.60;61.40;;;;;;2288793;55;21013;-66
2023/03/18 05:42:05;;;;;;;2.20;0.60;;;14.60;61.40;;;;;;2288482;55;21073;-66
2023/03/18 05:44:31;;;;;;;1.02;0.52;;;14.60;61.00;;;;;;2289183;55;21510;-65
2023/03/18 05:46:58;;;;;;;3.40;0.60;;;14.60;61.30;;;;;;2523114;54;20970;-68
2023/03/18 05:49:24;;;;;;;2.08;0.80;;;14.50;61.20;;;;;;2523413;54;21389;-67
2023/03/18 05:51:51;;;;;;;2.50;0.73;;;14.50;61.20;;;;;;2288924;55;20994;-67
2023/03/18 05:54:20;;;;;;;2.62;0.90;;;14.50;61.10;;;;;;2289275;55;21026;-66
2023/03/18 05:56:47;;;;;;;3.92;1.48;;;14.60;61.40;;;;;;2523268;54;21002;-67
2023/03/18 05:59:14;;;;;;;4.65;1.60;;;14.50;61.10;;;;;;2523293;54;21795;-65
2023/03/18 06:01:40;;;;;;;4.20;1.48;;;14.40;60.90;;;;;;2288768;55;21037;-65
2023/03/18 06:04:07;;;;;;;2.35;0.95;;;14.40;61.00;;;;;;2289183;55;20946;-65
2023/03/18 06:06:36;;;;;;;2.25;1.00;;;14.30;60.90;;;;;;2289330;55;21466;-64
2023/03/18 06:09:02;;;;;;;2.35;0.88;;;14.30;61.00;;;;;;2523786;54;20961;-65
2023/03/18 06:11:30;;;;;;;2.78;1.10;;;14.30;61.00;;;;;;2525480;54;20949;-66
2023/03/18 06:13:57;;;;;;;3.10;1.12;;;14.30;61.10;;;;;;2290770;55;20982;-69
2023/03/18 06:16:23;;;;;;;1.33;0.80;;;14.20;61.00;;;;;;2526073;54;20962;-69
2023/03/18 06:18:49;;;;;;;2.67;0.90;;;14.10;61.00;;;;;;2290463;55;21784;-67
2023/03/18 06:21:16;;;;;;;1.80;0.62;;;14.10;61.00;;;;;;2525225;54;21006;-69
2023/03/18 06:23:43;;;;;;;2.08;0.55;;;14.10;61.10;;;;;;2524654;54;21016;-67
2023/03/18 06:26:10;;;;;;;2.40;0.70;;;14.00;61.10;;;;;;2525174;54;21062;-70
2023/03/18 06:28:36;;;;;;;3.67;0.90;;;14.00;61.20;;;;;;2524935;54;21061;-70
2023/03/18 06:31:03;;;;;;;2.05;0.90;;;14.00;61.30;;;;;;2290295;55;21070;-67
2023/03/18 06:33:29;;;;;;;3.28;1.00;;;13.90;61.30;;;;;;2289314;55;20990;-69
2023/03/18 06:35:56;;;;;;;2.08;0.90;;;13.90;61.40;;;;;;2523915;54;21016;-69
2023/03/18 06:38:24;;;;;;;2.05;0.90;;;13.90;61.50;;;;;;2289166;55;20934;-69
2023/03/18 06:40:50;;;;;;;2.65;1.00;;;13.80;61.50;;;;;;2290968;55;20953;-68
2023/03/18 06:43:17;;;;;;;2.35;0.75;;;13.80;61.50;;;;;;2522551;54;21379;-70
2023/03/18 06:45:45;;;;;;;3.03;0.80;;;13.80;61.70;;;;;;2289359;55;21037;-71
2023/03/18 06:48:12;;;;;;;2.90;0.85;;;13.80;61.80;;;;;;2524076;54;20958;-67
2023/03/18 06:50:39;;;;;;;1.90;0.70;;;13.90;62.00;;;;;;2289208;55;20990;-71
2023/03/18 06:53:06;;;;;;;1.85;0.70;;;13.90;62.10;;;;;;2289004;55;21044;-68
2023/03/18 06:55:32;;;;;;;1.70;0.70;;;13.90;62.10;;;;;;2289328;55;20918;-68
2023/03/18 06:57:59;;;;;;;2.12;0.57;;;13.90;62.30;;;;;;2523136;54;20966;-71
2023/03/18 07:00:25;;;;;;;4.90;0.80;;;14.00;62.40;;;;;;2523566;54;20977;-67
2023/03/18 07:02:52;;;;;;;1.75;0.60;;;14.00;62.60;;;;;;2288792;55;21471;-67
2023/03/18 07:05:19;;;;;;;1.65;0.50;;;14.10;62.70;;;;;;2523024;54;20970;-67
2023/03/18 07:07:49;;;;;;;1.73;0.70;;;14.20;62.80;;;;;;2288066;55;20970;-67
2023/03/18 07:10:21;;;;;;;2.15;0.70;;;14.30;62.60;;;;;;2516868;54;20987;-72
2023/03/18 07:12:49;;;;;;;2.12;0.85;;;14.40;62.60;;;;;;2289416;55;20963;-67
2023/03/18 07:15:18;;;;;;;1.58;0.60;;;14.40;63.00;;;;;;2519196;54;20926;-67
2023/03/18 07:17:45;;;;;;;2.12;0.70;;;14.50;62.90;;;;;;2522764;54;20990;-65
2023/03/18 07:20:12;;;;;;;2.20;0.75;;;14.60;63.00;;;;;;2288403;55;20981;-65
2023/03/18 07:22:38;;;;;;;2.42;0.70;;;14.70;63.00;;;;;;2523280;54;21692;-68
2023/03/18 07:25:07;;;;;;;2.25;0.55;;;14.80;63.00;;;;;;2288567;55;20941;-65
2023/03/18 07:27:34;;;;;;;1.37;0.60;;;14.90;62.90;;;;;;2288698;55;21037;-65
2023/03/18 07:30:00;;;;;;;3.12;0.80;;;15.00;62.70;;;;;;2288458;55;20958;-65
2023/03/18 07:32:26;;;;;;;2.47;0.70;;;15.10;62.60;;;;;;2289395;55;20934;-67
2023/03/18 07:34:53;;;;;;;1.83;0.70;;;15.20;62.60;;;;;;2522581;54;20926;-66
2023/03/18 07:37:19;;;;;;;2.70;0.73;;;15.30;62.40;;;;;;2288261;55;21170;-69
2023/03/18 07:39:45;;;;;;;2.28;0.90;;;15.40;62.40;;;;;;2288394;55;21195;-69
2023/03/18 07:42:12;;;;;;;2.53;0.93;;;15.50;62.50;;;;;;2288007;55;20989;-65
2023/03/18 07:44:38;;;;;;;3.17;0.90;;;15.60;62.40;;;;;;2288161;55;21061;-67
2023/03/18 07:47:04;;;;;;;2.47;0.70;;;15.70;62.30;;;;;;2287730;55;20945;-67
2023/03/18 07:49:31;;;;;;;3.15;0.70;;;15.80;62.00;;;;;;2516551;54;21063;-66
2023/03/18 07:51:57;;;;;;;2.37;0.73;;;15.80;61.70;;;;;;2520576;54;21412;-66
2023/03/18 07:54:23;;;;;;;1.73;0.60;;;15.90;61.60;;;;;;2287806;55;20980;-65
2023/03/18 07:56:50;;;;;;;3.45;1.00;;;16.00;61.70;;;;;;2287435;55;20969;-66
2023/03/18 07:59:17;;;;;;;2.80;0.90;;;16.10;61.70;;;;;;2289370;55;21385;-66
2023/03/18 08:01:44;;;;;;;1.80;0.60;;;16.20;61.70;;;;;;2285071;55;20934;-66
2023/03/18 08:04:11;;;;;;;2.22;0.70;;;16.30;61.60;;;;;;2288945;55;21651;-65
2023/03/18 08:06:38;;;;;;;4.18;0.73;;;16.40;61.70;;;;;;2288174;55;20973;-66
2023/03/18 08:09:04;;;;;;;4.05;0.82;;;16.40;61.60;;;;;;2522483;54;20936;-69
2023/03/18 08:11:32;;;;;;;2.83;0.80;;;16.50;61.50;;;;;;2522215;54;20947;-66
2023/03/18 08:14:01;;;;;;;2.92;1.00;;;16.60;61.30;;;;;;2522352;54;20993;-68
2023/03/18 08:16:28;;;;;;;2.55;0.80;;;16.70;60.80;;;;;;2288435;55;21395;-64
2023/03/18 08:18:54;;;;;;;2.30;0.77;;;16.70;61.00;;;;;;2520939;54;21693;-70
2023/03/18 08:21:21;;;;;;;2.92;0.88;;;16.80;60.80;;;;;;2287684;55;21793;-66
2023/03/18 08:23:47;;;;;;;3.25;1.00;;;16.90;60.70;;;;;;2522614;54;20978;-64
2023/03/18 08:26:14;;;;;;;4.90;0.93;;;17.00;60.70;;;;;;2288398;55;20966;-66
2023/03/18 08:28:41;;;;;;;3.50;0.90;;;17.10;60.80;;;;;;2288000;55;21919;-67
2023/03/18 08:31:08;;;;;;;2.95;0.80;;;17.20;61.10;;;;;;2522609;54;20970;-68
2023/03/18 08:33:35;;;;;;;2.67;0.93;;;17.20;61.00;;;;;;2522874;54;21225;-68
2023/03/18 08:36:01;;;;;;;4.25;0.80;;;17.40;61.40;;;;;;2522544;54;20977;-70
2023/03/18 08:38:31;;;;;;;2.55;0.88;;;17.50;61.70;;;;;;2288902;55;20998;-67
2023/03/18 08:40:58;;;;;;;2.15;0.70;;;17.60;61.50;;;;;;2286946;55;21033;-66
2023/03/18 08:43:27;;;;;;;2.25;0.80;;;17.80;62.10;;;;;;2522866;54;21459;-68
2023/03/18 08:45:53;;;;;;;2.83;0.75;;;17.90;61.80;;;;;;2290300;55;20942;-70
2023/03/18 08:48:20;;;;;;;1.77;0.70;;;18.00;61.80;;;;;;2515452;54;21855;-70
2023/03/18 08:50:47;;;;;;;2.42;0.90;;;18.20;61.70;;;;;;2286875;55;20962;-67
2023/03/18 08:53:14;;;;;;;2.10;0.62;;;18.30;61.60;;;;;;2515506;54;21768;-72
2023/03/18 08:55:42;;;;;;;3.65;0.80;;;18.40;61.50;;;;;;2520216;54;21058;-72
2023/03/18 08:58:08;;;;;;;3.05;0.80;;;18.50;61.60;;;;;;2518436;54;21471;-67
2023/03/18 09:00:35;;;;;;;2.47;0.62;;;18.60;61.70;;;;;;2521921;54;20976;-68
2023/03/18 09:03:02;;;;;;;1.40;0.60;;;18.80;61.60;;;;;;2522286;54;21755;-66
2023/03/18 09:05:29;;;;;;;3.80;0.90;;;18.90;61.30;;;;;;2522993;54;20945;-67
2023/03/18 09:07:58;;;;;;;3.58;0.70;;;19.00;61.20;;;;;;2287492;55;20931;-69
2023/03/18 09:10:25;;;;;;;3.75;0.90;;;19.10;60.40;;;;;;2288341;55;21009;-68
2023/03/18 09:12:51;;;;;;;2.60;0.70;;;19.20;60.00;;;;;;2287695;55;21348;-65
2023/03/18 09:15:19;;;;;;;1.55;0.60;;;19.30;60.00;;;;;;2522347;54;20950;-70
2023/03/18 09:17:47;;;;;;;2.40;0.60;;;19.40;60.10;;;;;;2522916;54;20933;-69
2023/03/18 09:20:31;;;;;;;3.20;1.10;;;19.40;60.00;;;;;;2288359;56;20961;-70
2023/03/18 09:22:58;;;;;;;2.20;0.90;;;19.50;60.20;;;;;;2491346;54;20957;-67
2023/03/18 09:25:24;;;;;;;2.45;0.70;;;19.60;60.50;;;;;;2522728;54;20993;-70
2023/03/18 09:27:51;;;;;;;1.73;0.70;;;19.70;60.60;;;;;;2287750;55;21875;-67
2023/03/18 09:30:17;;;;;;;3.10;0.80;;;19.80;60.50;;;;;;2522463;54;22187;-67
2023/03/18 09:32:44;;;;;;;4.30;0.90;;;19.90;59.90;;;;;;2288286;55;20949;-67
2023/03/18 09:35:11;;;;;;;3.78;0.95;;;20.00;60.10;;;;;;2290394;55;20980;-72
2023/03/18 09:37:39;;;;;;;3.03;0.80;;;20.10;59.50;;;;;;2284753;55;21493;-67
2023/03/18 09:40:06;;;;;;;2.92;0.90;;;20.20;59.40;;;;;;2520914;54;21384;-70
2023/03/18 09:45:18;;;;;;;2.28;0.70;;;20.30;59.70;;;;;;2288182;55;21582;-67
2023/03/18 09:48:18;;;;;;;2.67;0.88;;;20.50;57.10;;;;;;2288286;55;21513;-66
2023/03/18 09:50:53;;;;;;;1.70;0.80;;;20.60;57.00;;;;;;2291344;55;21649;-67
2023/03/18 09:53:30;;;;;;;1.58;0.60;;;20.60;58.30;;;;;;2517089;54;20930;-66
2023/03/18 09:55:59;;;;;;;3.05;0.90;;;20.60;57.80;;;;;;2288254;55;20966;-64
2023/03/18 09:58:46;;;;;;;2.72;0.85;;;20.70;58.80;;;;;;2288315;55;21037;-67
2023/03/18 10:01:13;;;;;;;2.15;0.70;;;20.70;56.30;;;;;;2361472;54;1311938;-66
2023/03/18 10:03:46;;;;;;;2.87;0.90;;;20.70;58.30;;;;;;2516028;54;21806;-67
2023/03/18 10:06:20;;;;;;;3.20;0.90;;;20.70;57.80;;;;;;2288091;55;21025;-69
2023/03/18 10:10:35;;;;;;;2.15;0.75;;;20.70;57.00;;;;;;2522738;54;20950;-66
2023/03/18 10:13:16;;;;;;;3.20;0.90;;;20.80;55.50;;;;;;2288370;55;21897;-66
2023/03/18 10:15:44;;;;;;;2.67;1.02;;;20.80;57.50;;;;;;2287934;55;20934;-67
2023/03/18 10:18:25;;;;;;;3.10;1.27;;;20.80;57.70;;;;;;2288253;55;20937;-70
2023/03/18 10:22:36;;;;;;;5.20;1.37;;;20.80;57.70;;;;;;2288197;55;21447;-68
2023/03/18 10:25:57;;;;;;;4.37;1.20;;;20.80;55.40;;;;;;2521751;54;20970;-67
2023/03/18 10:29:53;;;;;;;2.58;1.00;;;20.80;54.80;;;;;;2286867;55;20981;-67
2023/03/18 10:32:50;;;;;;;2.10;0.90;;;20.90;55.20;;;;;;2522630;54;20930;-66
2023/03/18 10:35:37;;;;;;;3.62;1.10;;;20.90;55.30;;;;;;2288006;55;20963;-67
2023/03/18 10:38:11;;;;;;;2.60;0.90;;;20.80;56.20;;;;;;2288330;55;21013;-71
2023/03/18 10:40:38;;;;;;;3.37;0.88;;;20.80;57.40;;;;;;2288635;55;21020;-66
2023/03/18 10:43:13;;;;;;;3.12;1.25;;;20.80;57.30;;;;;;2287921;55;20993;-67
2023/03/18 10:45:41;;;;;;;3.62;0.95;;;20.70;56.90;;;;;;2522816;54;21836;-67
2023/03/18 10:48:35;;;;;;;2.80;1.05;;;20.70;57.30;;;;;;2288283;55;20941;-67
2023/03/18 10:51:17;;;;;;;4.03;1.00;;;20.70;55.00;;;;;;2522407;54;21835;-66
2023/03/18 10:57:15;;;;;;;2.55;0.90;;;20.70;55.90;;;;;;2522339;54;20962;-67
2023/03/18 10:59:46;;;;;;;2.67;0.65;;;20.60;56.10;;;;;;2288143;55;21509;-69
2023/03/18 11:05:44;;;;;;;3.85;1.20;;;20.60;57.90;;;;;;2288091;55;21053;-67
2023/03/18 11:08:36;;;;;;;2.60;0.93;;;20.60;56.40;;;;;;2288196;55;21034;-67
2023/03/18 11:11:42;;;;;;;2.60;0.90;;;20.60;56.90;;;;;;2522399;54;21025;-67
2023/03/18 11:14:21;;;;;;;1.60;0.60;;;20.60;56.70;;;;;;2287808;55;21021;-67
2023/03/18 11:16:49;;;;;;;2.78;0.82;;;20.60;58.10;;;;;;2287834;55;21351;-67
2023/03/18 11:19:28;;;;;;;1.95;0.80;;;20.60;59.10;;;;;;2288261;55;20961;-67
2023/03/18 11:25:28;;;;;;;3.25;1.15;;;20.70;57.80;;;;;;2522342;54;20962;-67
2023/03/18 11:28:01;;;;;;;3.97;1.08;;;21.00;57.80;;;;;;2287716;55;21114;-70
2023/03/18 11:30:29;;;;;;;3.85;1.25;;;21.20;59.80;;;;;;2522421;54;20954;-67
2023/03/18 11:33:13;;;;;;;2.42;1.00;;;21.20;59.70;;;;;;2287710;55;21238;-67
2023/03/18 11:36:51;;;;;;;2.58;1.17;;;21.40;59.30;;;;;;2291055;55;21486;-67
2023/03/18 11:39:18;;;;;;;2.80;1.30;;;21.50;58.10;;;;;;2518839;54;21504;-67
2023/03/18 11:41:44;;;;;;;2.65;1.08;;;21.60;58.80;;;;;;2519100;54;20986;-67
2023/03/18 11:44:23;;;;;;;2.40;1.00;;;21.70;58.60;;;;;;2287912;55;21452;-68
2023/03/18 11:47:02;;;;;;;2.28;0.98;;;21.80;57.20;;;;;;2522195;54;20930;-68
2023/03/18 11:49:30;;;;;;;3.42;1.10;;;21.90;56.00;;;;;;2521940;54;21018;-67
2023/03/18 11:55:22;;;;;;;2.60;0.90;;;22.00;57.20;;;;;;2287846;55;21001;-70
2023/03/18 11:58:28;;;;;;;3.20;0.90;;;22.20;55.00;;;;;;2287656;55;20970;-67
2023/03/18 12:01:18;;;;;;;5.05;0.90;;;22.10;55.60;;;;;;2520255;54;20983;-70
2023/03/18 12:04:12;;;;;;;1.65;0.70;;;22.30;55.30;;;;;;2284995;55;21430;-68
2023/03/18 12:06:55;;;;;;;4.12;1.08;;;22.40;56.20;;;;;;2287789;55;21841;-68
2023/03/18 12:09:31;;;;;;;2.60;1.20;;;22.50;55.50;;;;;;2288354;55;20941;-67
2023/03/18 12:12:37;;;;;;;3.62;1.25;;;22.50;55.40;;;;;;2522178;54;20961;-67
2023/03/18 12:19:14;;;;;;;3.10;1.05;;;22.50;52.80;;;;;;2290323;55;21097;-67
2023/03/18 12:32:00;;;;;;;2.80;0.90;;;22.70;53.00;;;;;;2288017;55;20992;-67
2023/03/18 12:34:49;;;;;;;1.62;0.60;;;22.70;54.30;;;;;;2287309;55;21017;-71
2023/03/18 12:40:00;;;;;;;2.55;0.95;;;22.70;54.80;;;;;;2522670;54;20982;-68
2023/03/18 12:44:00;;;;;;;2.65;0.90;;;22.70;54.70;;;;;;2518590;54;21026;-67
2023/03/18 12:46:46;;;;;;;1.67;0.70;;;22.70;55.90;;;;;;2287752;55;20962;-67
2023/03/18 12:49:38;;;;;;;2.67;0.77;;;22.80;54.30;;;;;;2522631;54;21006;-68
2023/03/18 12:53:39;;;;;;;2.50;0.80;;;22.80;55.60;;;;;;2287488;55;21423;-67
2023/03/18 12:56:16;;;;;;;3.03;0.80;;;22.80;56.10;;;;;;2287522;55;20937;-67
2023/03/18 12:58:51;;;;;;;3.42;1.10;;;22.80;54.10;;;;;;2522557;54;20950;-67
2023/03/18 13:01:26;;;;;;;2.08;0.70;;;22.80;55.40;;;;;;2287576;55;21417;-68
2023/03/18 13:04:01;;;;;;;2.28;0.60;;;22.90;54.70;;;;;;2287793;55;21017;-68
2023/03/18 13:07:14;;;;;;;2.33;0.68;;;22.90;53.50;;;;;;2521745;54;21066;-68
2023/03/18 13:09:49;;;;;;;1.80;0.62;;;23.00;52.50;;;;;;2521956;54;21424;-68
2023/03/18 13:13:16;;;;;;;1.62;0.57;;;23.00;53.70;;;;;;2288386;55;21450;-70
2023/03/18 13:15:51;;;;;;;1.87;0.60;;;23.00;51.50;;;;;;2287781;55;21316;-68
2023/03/18 13:18:30;;;;;;;1.65;0.60;;;23.00;53.00;;;;;;2523249;54;21470;-70
2023/03/18 13:20:57;;;;;;;2.37;0.65;;;23.00;53.80;;;;;;2522345;54;21021;-70
2023/03/18 13:24:01;;;;;;;1.87;0.60;;;23.10;54.60;;;;;;2287940;55;20953;-68
2023/03/18 13:31:42;;;;;;;1.60;0.50;;;23.10;52.50;;;;;;2287892;55;20954;-67
2023/03/18 13:38:37;;;;;;;2.47;0.80;;;23.10;53.40;;;;;;2522125;54;21553;-67
2023/03/18 13:42:37;;;;;;;2.37;0.80;;;23.20;53.30;;;;;;2287818;55;20961;-68
2023/03/18 13:45:25;;;;;;;1.10;0.57;;;23.20;55.10;;;;;;2522381;54;20945;-68
2023/03/18 13:48:06;;;;;;;1.92;0.70;;;23.20;53.10;;;;;;2288077;55;20997;-66
2023/03/18 13:50:38;;;;;;;2.62;0.60;;;23.10;54.00;;;;;;2522183;54;21285;-68
2023/03/18 13:53:04;;;;;;;;;;;23.10;54.90;;;;;;2294442;55;20977;-67
2023/03/18 13:55:46;;;;;;;2.62;0.75;;;23.10;51.90;;;;;;2282782;55;20132;-67
2023/03/18 13:58:51;;;;;;;1.75;0.65;;;23.10;52.50;;;;;;2290609;55;23264;-67
2023/03/18 14:01:35;;;;;;;2.08;0.68;;;23.10;51.30;;;;;;2518874;54;21490;-68